Time;durP1;ratioP1;P1;durP2;ratioP2;P2;SDS_P1;SDS_P2;PMS_P1;PMS_P2;Temp;Humidity;BMP_temperature;BMP_pressure;BME280_temperature;BME280_humidity;BME280_pressure;Samples;Min_cycle;Max_cycle;Signal;HPM_P1;HPM_P2
2023/01/10 00:01:15;;;;;;;19.75;5.20;;;;;;;5.37;100.00;100740.63;5055005;28;20056;-57
2023/01/10 00:03:41;;;;;;;17.67;5.90;;;;;;;5.29;100.00;100737.75;5055062;28;20041;-56
2023/01/10 00:06:08;;;;;;;17.38;5.45;;;;;;;5.36;100.00;100754.72;5054317;28;20041;-57
2023/01/10 00:08:35;;;;;;;22.83;5.68;;;;;;;5.44;100.00;100759.41;5054318;28;20067;-57
2023/01/10 00:13:22;;;;;;;15.32;5.47;;;;;;;5.46;100.00;100769.81;5054797;28;20395;-56
2023/01/10 00:13:52;;;;;;;19.63;5.18;;;;;;;5.48;99.34;100781.88;5058787;28;20505;-57
2023/01/10 00:16:18;;;;;;;15.90;5.22;;;;;;;5.38;99.60;100783.56;5074801;28;20048;-56
2023/01/10 00:18:45;;;;;;;15.15;5.57;;;;;;;5.44;98.85;100788.34;5074571;28;20055;-57
2023/01/10 00:21:13;;;;;;;15.55;5.30;;;;;;;5.43;99.00;100794.56;5074823;28;20041;-56
2023/01/10 00:23:40;;;;;;;23.55;5.30;;;;;;;5.43;98.87;100793.72;5073855;28;20046;-56
2023/01/10 00:26:08;;;;;;;16.58;5.85;;;;;;;5.41;98.86;100799.09;5074430;28;20086;-57
2023/01/10 00:28:35;;;;;;;21.40;6.32;;;;;;;5.42;99.39;100803.44;5074217;28;20055;-57
2023/01/10 00:31:05;;;;;;;16.67;5.40;;;;;;;5.48;98.25;100802.94;5074692;28;20052;-57
2023/01/10 00:33:33;;;;;;;12.25;4.53;;;;;;;5.48;97.95;100815.25;5074287;28;20052;-57
2023/01/10 00:36:01;;;;;;;17.25;5.20;;;;;;;5.34;98.88;100822.41;5073765;28;20402;-57
2023/01/10 00:38:29;;;;;;;20.83;5.50;;;;;;;5.47;98.23;100830.19;5074112;28;20044;-57
2023/01/10 00:40:56;;;;;;;23.55;5.40;;;;;;;5.47;97.92;100829.38;5074287;28;20082;-57
2023/01/10 00:46:10;;;;;;;18.85;4.55;;;;;;;5.53;97.43;100847.28;5073717;28;20123;-57
2023/01/10 00:48:37;;;;;;;17.27;4.70;;;;;;;5.53;97.54;100849.94;5074233;28;20048;-57
2023/01/10 00:51:04;;;;;;;16.67;5.35;;;;;;;5.59;97.20;100854.72;5073878;28;20486;-57
2023/01/10 00:53:30;;;;;;;22.88;4.93;;;;;;;5.65;96.77;100859.50;5073441;28;20547;-57
2023/01/10 00:55:58;;;;;;;19.55;4.85;;;;;;;5.67;96.64;100860.22;5073564;28;20032;-57
2023/01/10 00:58:24;;;;;;;20.42;4.80;;;;;;;5.63;96.44;100868.50;5073884;28;20071;-57
2023/01/10 01:00:51;;;;;;;16.85;4.40;;;;;;;5.79;96.17;100870.78;5073948;28;20099;-57
2023/01/10 01:03:19;;;;;;;17.40;4.07;;;;;;;5.86;94.30;100885.97;5073769;28;20054;-57
2023/01/10 01:05:47;;;;;;;18.85;4.78;;;;;;;5.77;94.38;100882.25;5073559;28;20045;-57
2023/01/10 01:08:15;;;;;;;13.77;3.60;;;;;;;5.70;95.26;100888.13;5072967;28;20048;-57
2023/01/10 01:10:42;;;;;;;17.80;4.18;;;;;;;5.75;95.04;100888.59;5071939;28;20044;-57
2023/01/10 01:13:13;;;;;;;18.63;4.07;;;;;;;5.83;94.75;100899.38;5053875;28;20075;-57
2023/01/10 01:15:40;;;;;;;26.92;4.38;;;;;;;5.75;94.38;100899.97;5073066;28;20039;-57
2023/01/10 01:18:07;;;;;;;20.25;4.00;;;;;;;5.85;94.75;100907.16;5074096;28;20090;-57
2023/01/10 01:20:34;;;;;;;19.65;4.20;;;;;;;5.80;94.30;100910.13;5073381;28;20068;-57
2023/01/10 01:23:00;;;;;;;19.90;4.88;;;;;;;5.87;94.13;100924.50;5073604;28;20102;-57
2023/01/10 01:25:27;;;;;;;21.77;5.28;;;;;;;5.71;94.57;100931.91;5073008;28;20056;-56
2023/01/10 01:27:54;;;;;;;19.15;4.65;;;;;;;5.66;94.92;100934.91;5074058;28;20131;-57
2023/01/10 01:30:21;;;;;;;14.18;3.80;;;;;;;5.74;94.69;100923.78;5073590;28;20040;-57
2023/01/10 01:32:47;;;;;;;13.20;3.72;;;;;;;5.82;94.29;100934.56;5072199;28;20535;-57
2023/01/10 01:35:15;;;;;;;16.17;3.60;;;;;;;5.81;94.30;100943.41;5073370;28;20082;-57
2023/01/10 01:37:43;;;;;;;20.02;3.92;;;;;;;5.67;93.89;100954.16;5073059;28;20048;-57
2023/01/10 01:40:13;;;;;;;13.07;2.97;;;;;;;5.72;93.91;100959.91;5073371;28;20140;-57
2023/01/10 01:42:40;;;;;;;17.15;3.97;;;;;;;5.57;93.95;100954.03;5073229;28;20486;-57
2023/01/10 01:45:15;;;;;;;15.68;3.70;;;;;;;5.72;94.02;100965.16;5057934;28;20071;-56
2023/01/10 01:48:07;;;;;;;24.58;3.83;;;;;;;5.73;93.33;100970.31;5052173;28;20076;-57
2023/01/10 01:51:04;;;;;;;13.02;3.10;;;;;;;5.70;93.08;100972.34;5051954;28;20049;-57
2023/01/10 01:53:49;;;;;;;18.10;3.90;;;;;;;5.73;92.89;100972.97;5052467;28;20103;-57
2023/01/10 01:56:23;;;;;;;13.85;3.20;;;;;;;5.65;93.27;100977.94;5053049;28;20049;-57
2023/01/10 01:58:56;;;;;;;27.05;3.72;;;;;;;5.71;92.67;100988.03;5053148;28;20131;-57
2023/01/10 02:01:23;;;;;;;18.42;3.50;;;;;;;5.66;92.84;100990.16;5053206;28;20483;-57
2023/01/10 02:03:57;;;;;;;22.02;3.58;;;;;;;5.70;92.47;100988.16;5052961;28;20048;-56
2023/01/10 02:06:24;;;;;;;17.48;3.92;;;;;;;5.75;93.08;100992.09;5054930;28;20041;-56
2023/01/10 02:09:02;;;;;;;19.73;4.05;;;;;;;5.76;92.20;100991.13;5056679;28;20501;-57
2023/01/10 02:11:29;;;;;;;18.00;3.55;;;;;;;5.69;92.32;101004.88;5056798;28;20041;-57
2023/01/10 02:13:57;;;;;;;20.65;3.47;;;;;;;5.80;91.65;100989.09;5062513;28;20098;-57
2023/01/10 02:16:24;;;;;;;18.67;4.20;;;;;;;5.82;90.88;101000.38;5076327;28;20039;-57
2023/01/10 02:18:51;;;;;;;19.40;3.35;;;;;;;5.57;91.44;101004.84;5077048;28;20045;-57
2023/01/10 02:21:35;;;;;;;17.45;3.75;;;;;;;5.54;91.98;101001.63;5077180;28;20573;-57
2023/01/10 02:24:30;;;;;;;16.15;3.45;;;;;;;5.36;92.72;101011.72;5076443;28;20048;-57
2023/01/10 02:27:14;;;;;;;20.85;3.50;;;;;;;5.45;92.25;101007.56;5076474;28;20047;-57
2023/01/10 02:30:04;;;;;;;17.80;3.95;;;;;;;5.49;92.03;101022.16;5076592;28;20048;-57
2023/01/10 02:32:37;;;;;;;19.63;4.00;;;;;;;5.37;91.89;101016.03;5076560;28;20127;-56
2023/01/10 02:35:33;;;;;;;;;;;;;;;5.37;92.00;101019.50;5076741;28;20127;-57
2023/01/10 02:38:27;;;;;;;17.65;3.35;;;;;;;5.28;92.30;101014.09;5076249;28;19927;-56
2023/01/10 02:41:33;;;;;;;14.68;3.45;;;;;;;5.22;92.57;101020.66;5076207;28;20049;-56
2023/01/10 02:44:10;;;;;;;21.02;3.63;;;;;;;5.19;92.94;101016.44;5075950;28;20056;-56
2023/01/10 02:46:38;;;;;;;21.98;3.85;;;;;;;5.25;91.83;101015.13;5076420;28;20055;-57
2023/01/10 02:49:05;;;;;;;21.35;4.35;;;;;;;5.25;92.76;101016.94;5076414;28;20044;-57
2023/01/10 02:51:32;;;;;;;12.13;3.50;;;;;;;5.25;92.17;101012.50;5076450;28;20044;-56
2023/01/10 02:54:07;;;;;;;21.20;4.20;;;;;;;5.27;92.17;101015.03;5076283;28;20052;-57
2023/01/10 02:59:51;;;;;;;19.70;3.65;;;;;;;5.31;92.00;101021.72;5111294;27;20368;-58
2023/01/10 03:03:00;;;;;;;19.70;3.65;;;;;;;5.25;91.55;101023.03;5110975;28;20094;-58
2023/01/10 03:05:43;;;;;;;20.27;3.30;;;;;;;5.21;92.42;101023.38;5110863;28;20439;-58
2023/01/10 03:08:29;;;;;;;16.00;4.00;;;;;;;5.09;92.12;101028.56;5110574;28;20139;-59
2023/01/10 03:11:00;;;;;;;19.73;3.33;;;;;;;5.10;91.94;101032.88;5111291;28;20048;-58
2023/01/10 03:13:36;;;;;;;22.08;4.85;;;;;;;5.11;92.39;101041.59;5111053;28;20044;-58
2023/01/10 03:16:06;;;;;;;20.40;4.07;;;;;;;5.09;91.85;101043.50;5110751;28;20462;-58
2023/01/10 03:18:41;;;;;;;15.93;3.40;;;;;;;4.91;91.85;101041.28;5111252;28;20046;-58
2023/01/10 03:21:10;;;;;;;14.65;3.90;;;;;;;4.91;92.65;101056.19;5110738;28;20091;-58
2023/01/10 03:23:39;;;;;;;20.23;3.80;;;;;;;4.89;92.58;101051.03;5110920;28;20048;-58
2023/01/10 03:26:09;;;;;;;18.10;3.40;;;;;;;4.81;92.53;101048.97;5110426;28;20067;-57
2023/01/10 03:28:56;;;;;;;17.52;3.78;;;;;;;4.78;92.74;101053.59;5111176;28;20036;-57
2023/01/10 03:31:30;;;;;;;17.70;3.10;;;;;;;4.83;92.41;101055.91;5110433;28;20089;-56
2023/01/10 03:33:57;;;;;;;17.95;3.85;;;;;;;4.75;92.73;101059.91;5110888;28;20130;-57
2023/01/10 03:36:31;;;;;;;17.25;3.20;;;;;;;4.78;92.76;101057.09;5110319;28;20051;-57
2023/01/10 03:42:03;;;;;;;19.17;3.28;;;;;;;4.61;92.83;101065.31;5110933;27;20754;-56
2023/01/10 03:44:46;;;;;;;19.63;3.80;;;;;;;4.74;92.73;101070.53;5109879;28;20075;-58
2023/01/10 03:50:18;;;;;;;17.52;3.15;;;;;;;4.60;92.38;101084.63;5070896;28;20364;-57
2023/01/10 03:52:45;;;;;;;15.38;3.17;;;;;;;4.68;92.35;101086.75;5070889;28;20052;-58
2023/01/10 03:55:15;;;;;;;19.88;4.40;;;;;;;4.75;92.59;101091.47;5069986;28;20037;-58
2023/01/10 03:57:44;;;;;;;16.80;3.30;;;;;;;4.78;91.81;101093.88;5070497;28;20040;-58
2023/01/10 04:00:13;;;;;;;22.63;4.10;;;;;;;4.65;92.05;101106.19;5070560;28;20405;-58
2023/01/10 04:02:40;;;;;;;24.13;3.67;;;;;;;4.68;92.26;101118.28;5070572;28;20041;-57
2023/01/10 04:05:07;;;;;;;20.58;3.70;;;;;;;4.77;92.16;101121.09;5070482;28;20048;-58
2023/01/10 04:07:35;;;;;;;19.00;3.60;;;;;;;4.72;92.28;101130.25;5069697;28;20052;-58
2023/01/10 04:10:03;;;;;;;17.60;3.35;;;;;;;4.71;91.73;101126.78;5070177;28;20047;-58
2023/01/10 04:12:30;;;;;;;17.73;3.63;;;;;;;4.66;92.63;101130.66;5070183;28;20060;-58
2023/01/10 04:14:56;;;;;;;15.18;3.42;;;;;;;4.80;92.02;101131.41;5070246;28;20110;-57
2023/01/10 04:17:23;;;;;;;27.50;3.67;;;;;;;4.78;93.30;101128.06;5069869;28;20044;-58
2023/01/10 04:19:50;;;;;;;19.27;3.45;;;;;;;4.94;91.30;101129.59;5069986;28;20406;-58
2023/01/10 04:22:16;;;;;;;18.95;3.38;;;;;;;4.93;91.59;101136.66;5070087;28;20128;-57
2023/01/10 04:24:43;;;;;;;18.48;3.92;;;;;;;4.91;91.67;101137.69;5069891;28;20044;-58
2023/01/10 04:27:10;;;;;;;16.77;3.60;;;;;;;4.92;91.12;101136.75;5070111;28;20045;-58
2023/01/10 04:29:36;;;;;;;23.27;3.65;;;;;;;4.84;91.39;101141.69;5070007;28;20098;-57
2023/01/10 04:32:03;;;;;;;16.27;3.10;;;;;;;4.82;91.58;101144.44;5070112;28;20098;-57
2023/01/10 04:34:30;;;;;;;20.48;3.40;;;;;;;4.82;91.05;101147.06;5069450;28;20041;-58
2023/01/10 04:36:57;;;;;;;17.70;3.85;;;;;;;4.89;91.38;101142.22;5069892;28;20056;-57
2023/01/10 04:39:23;;;;;;;21.00;3.28;;;;;;;4.75;91.53;101149.28;5069452;28;20094;-57
2023/01/10 04:41:50;;;;;;;17.60;3.63;;;;;;;4.82;92.02;101141.81;5070020;28;20079;-57
2023/01/10 04:44:16;;;;;;;19.23;4.07;;;;;;;4.97;91.47;101140.72;5069544;28;20079;-57
2023/01/10 04:46:43;;;;;;;16.42;3.55;;;;;;;5.04;91.29;101132.41;5069699;28;20045;-58
2023/01/10 04:49:10;;;;;;;21.45;3.60;;;;;;;5.12;91.63;101138.81;5069286;28;20091;-58
2023/01/10 04:51:37;;;;;;;23.40;3.70;;;;;;;5.19;91.54;101145.31;5069285;28;20516;-58
2023/01/10 04:54:03;;;;;;;18.80;3.75;;;;;;;5.16;90.59;101148.16;5069457;28;20118;-58
2023/01/10 04:56:30;;;;;;;20.42;4.53;;;;;;;5.23;90.40;101145.94;5069067;28;20082;-58
2023/01/10 04:58:57;;;;;;;20.10;4.68;;;;;;;5.12;90.42;101159.84;5069507;28;20124;-58
2023/01/10 05:01:25;;;;;;;19.48;3.25;;;;;;;5.08;91.45;101163.66;5057189;28;20170;-58
2023/01/10 05:03:54;;;;;;;25.20;3.50;;;;;;;5.18;90.82;101167.31;5055844;28;20463;-58
2023/01/10 05:06:22;;;;;;;20.27;3.55;;;;;;;5.13;91.06;101160.69;5055636;28;20049;-58
2023/01/10 05:08:50;;;;;;;23.95;3.63;;;;;;;5.11;91.13;101168.69;5055426;28;20045;-57
2023/01/10 05:11:16;;;;;;;25.48;4.90;;;;;;;5.12;91.31;101172.16;5056049;28;20049;-57
2023/01/10 05:13:43;;;;;;;20.05;3.60;;;;;;;5.23;91.14;101181.94;5055855;28;20044;-57
2023/01/10 05:16:12;;;;;;;22.48;3.63;;;;;;;5.23;90.54;101184.56;5055327;28;20498;-57
2023/01/10 05:18:38;;;;;;;26.23;3.83;;;;;;;5.21;90.80;101186.47;5055823;28;20052;-57
2023/01/10 05:21:08;;;;;;;22.83;4.05;;;;;;;5.00;90.56;101177.34;5055676;28;20274;-58
2023/01/10 05:23:36;;;;;;;23.17;4.60;;;;;;;4.97;91.77;101180.19;5055865;28;20380;-58
2023/01/10 05:26:07;;;;;;;16.35;3.38;;;;;;;4.83;91.88;101189.97;5055130;28;20119;-57
2023/01/10 05:28:34;;;;;;;;;;;;;;;4.95;92.25;101189.13;5055839;28;20459;-58
2023/01/10 05:31:01;;;;;;;20.42;3.90;;;;;;;4.99;91.57;101180.06;5055419;28;20038;-58
2023/01/10 05:33:28;;;;;;;23.95;4.20;;;;;;;5.05;91.51;101190.16;5055500;28;20136;-59
2023/01/10 05:35:55;;;;;;;20.88;3.58;;;;;;;4.90;91.66;101191.22;5055245;28;20053;-57
2023/01/10 05:38:22;;;;;;;22.80;3.40;;;;;;;4.89;91.08;101193.00;5055319;28;20129;-57
2023/01/10 05:40:55;;;;;;;20.33;4.18;;;;;;;4.99;90.69;101203.75;5055437;28;20102;-57
2023/01/10 05:43:22;;;;;;;28.80;3.72;;;;;;;4.95;90.73;101212.78;5055174;28;20132;-58
2023/01/10 05:45:49;;;;;;;30.55;3.95;;;;;;;4.77;90.75;101209.63;5049847;28;20060;-58
2023/01/10 05:48:16;;;;;;;25.33;3.97;;;;;;;4.70;91.67;101219.72;5052677;28;20069;-57
2023/01/10 05:50:43;;;;;;;27.65;3.97;;;;;;;4.69;91.94;101201.41;5054208;28;20095;-57
2023/01/10 05:53:10;;;;;;;28.88;3.80;;;;;;;4.65;91.95;101206.03;5054449;28;20124;-57
2023/01/10 05:55:36;;;;;;;21.10;3.72;;;;;;;4.70;92.30;101200.50;5054714;28;20095;-57
2023/01/10 05:58:03;;;;;;;23.25;3.95;;;;;;;4.71;92.44;101204.78;5054914;28;20502;-58
2023/01/10 06:00:30;;;;;;;25.90;3.78;;;;;;;4.78;91.80;101216.56;5054719;28;20108;-57
2023/01/10 06:02:57;;;;;;;39.00;4.30;;;;;;;4.74;91.64;101223.81;5054887;28;20041;-58
2023/01/10 06:05:24;;;;;;;25.92;4.32;;;;;;;4.70;91.79;101227.59;5054506;28;20402;-57
2023/01/10 06:07:50;;;;;;;17.52;3.55;;;;;;;4.64;91.75;101229.78;5054306;28;20160;-57
2023/01/10 06:10:17;;;;;;;19.60;3.70;;;;;;;4.71;91.75;101239.81;5054299;28;20072;-58
2023/01/10 06:12:45;;;;;;;25.50;3.97;;;;;;;4.61;92.18;101250.09;5053890;28;20040;-57
2023/01/10 06:15:12;;;;;;;34.60;3.53;;;;;;;4.66;92.27;101244.53;5054292;28;20441;-57
2023/01/10 06:17:39;;;;;;;21.98;3.25;;;;;;;4.66;92.15;101251.56;5054543;28;20044;-58
2023/01/10 06:20:06;;;;;;;31.42;4.05;;;;;;;4.84;91.86;101257.34;5054645;28;20045;-57
2023/01/10 06:22:33;;;;;;;25.40;4.63;;;;;;;4.79;91.43;101252.44;5054068;28;20411;-58
2023/01/10 06:24:59;;;;;;;36.67;4.28;;;;;;;4.81;91.10;101237.38;5054177;28;20455;-57
2023/01/10 06:27:28;;;;;;;26.55;3.50;;;;;;;4.77;91.27;101249.06;5054214;28;20045;-58
2023/01/10 06:29:55;;;;;;;27.08;3.50;;;;;;;4.84;91.51;101254.72;5054075;28;20434;-57
2023/01/10 06:32:22;;;;;;;33.75;5.28;;;;;;;4.74;91.14;101268.50;5053817;28;20356;-57
2023/01/10 06:34:49;;;;;;;26.10;4.72;;;;;;;4.81;91.23;101272.41;5053792;28;20068;-57
2023/01/10 06:37:15;;;;;;;30.33;4.63;;;;;;;4.87;91.10;101281.66;5054168;28;20048;-57
2023/01/10 06:39:45;;;;;;;22.10;4.00;;;;;;;4.89;91.06;101281.56;5053384;28;20402;-57
2023/01/10 06:42:11;;;;;;;39.40;5.13;;;;;;;4.85;91.59;101290.59;5053451;28;20044;-57
2023/01/10 06:44:38;;;;;;;28.60;4.22;;;;;;;4.86;91.40;101284.38;5053303;28;20437;-57
2023/01/10 06:47:05;;;;;;;35.45;5.00;;;;;;;4.94;90.40;101282.91;5053870;28;20052;-57
2023/01/10 06:49:31;;;;;;;25.88;4.35;;;;;;;4.96;90.57;101288.09;5053082;28;20049;-57
2023/01/10 06:51:58;;;;;;;30.20;5.20;;;;;;;5.02;90.43;101299.97;5053575;28;20495;-57
2023/01/10 06:54:24;;;;;;;32.08;4.28;;;;;;;5.08;90.53;101305.66;5053424;28;20041;-57
2023/01/10 06:56:51;;;;;;;34.13;4.65;;;;;;;5.09;89.98;101309.97;5053087;28;20045;-57
2023/01/10 06:59:18;;;;;;;26.38;4.20;;;;;;;4.99;90.47;101311.56;5053713;28;20041;-57
2023/01/10 07:01:45;;;;;;;33.42;4.20;;;;;;;5.02;90.35;101313.13;5053535;28;20574;-58
2023/01/10 07:04:12;;;;;;;37.03;4.40;;;;;;;5.06;89.54;101317.22;5053611;28;20560;-57
2023/01/10 07:06:40;;;;;;;34.03;4.22;;;;;;;5.00;89.99;101321.97;5044835;28;20043;-57
2023/01/10 07:09:07;;;;;;;23.77;4.47;;;;;;;5.05;90.36;101324.28;5046946;28;20438;-57
2023/01/10 07:11:34;;;;;;;29.27;4.78;;;;;;;4.98;90.68;101331.75;5033477;28;20056;-57
2023/01/10 07:14:01;;;;;;;31.70;4.60;;;;;;;4.90;90.58;101333.22;5039824;28;20553;-57
2023/01/10 07:16:28;;;;;;;26.20;3.75;;;;;;;4.92;90.52;101331.31;5053074;28;20049;-57
2023/01/10 07:18:55;;;;;;;30.30;4.18;;;;;;;4.74;90.72;101342.09;5053418;28;20068;-57
2023/01/10 07:21:22;;;;;;;33.65;4.03;;;;;;;4.71;91.46;101352.84;5053486;28;20119;-58
2023/01/10 07:23:49;;;;;;;34.92;4.40;;;;;;;4.78;91.33;101350.63;5053471;28;20442;-58
2023/01/10 07:26:17;;;;;;;26.65;4.22;;;;;;;4.89;91.43;101345.50;5053096;28;20099;-57
2023/01/10 07:28:49;;;;;;;29.90;4.97;;;;;;;4.80;90.86;101348.72;5053269;28;20442;-57
2023/01/10 07:31:18;;;;;;;34.20;4.28;;;;;;;4.78;90.69;101364.63;5053366;28;20052;-57
2023/01/10 07:33:45;;;;;;;27.67;4.50;;;;;;;4.79;91.27;101360.22;5053409;28;20057;-57
2023/01/10 07:36:13;;;;;;;31.90;4.82;;;;;;;4.74;91.45;101352.59;5052816;28;20055;-58
2023/01/10 07:38:39;;;;;;;30.52;4.35;;;;;;;4.80;91.42;101360.09;5053196;28;20049;-57
2023/01/10 07:41:06;;;;;;;36.25;4.75;;;;;;;4.79;91.58;101362.84;5053173;28;20045;-57
2023/01/10 07:43:33;;;;;;;28.95;3.85;;;;;;;4.74;91.62;101365.75;5053042;28;20517;-61
2023/01/10 07:46:01;;;;;;;32.63;4.53;;;;;;;4.70;90.98;101366.91;5051637;28;20076;-57
2023/01/10 07:48:29;;;;;;;32.88;4.63;;;;;;;4.81;90.98;101376.72;5029831;28;20072;-57
2023/01/10 07:50:58;;;;;;;37.88;5.47;;;;;;;4.83;90.71;101374.81;5033442;28;20042;-57
2023/01/10 07:53:27;;;;;;;29.13;3.90;;;;;;;4.69;90.79;101380.13;5032870;28;20399;-58
2023/01/10 07:55:58;;;;;;;25.20;4.15;;;;;;;4.57;91.00;101374.75;5031012;28;20103;-57
2023/01/10 07:58:24;;;;;;;29.90;4.33;;;;;;;4.71;91.27;101378.25;5035874;28;20057;-56
2023/01/10 08:00:51;;;;;;;23.10;3.83;;;;;;;4.58;91.45;101391.34;5046667;28;20055;-56
2023/01/10 08:03:18;;;;;;;27.38;3.63;;;;;;;4.78;91.75;101401.44;5050186;28;20056;-56
2023/01/10 08:05:45;;;;;;;31.02;4.00;;;;;;;4.76;91.23;101394.56;5050195;28;20468;-56
2023/01/10 08:08:12;;;;;;;28.33;4.25;;;;;;;4.76;90.70;101398.03;5044170;28;20095;-57
2023/01/10 08:10:39;;;;;;;31.40;4.47;;;;;;;4.70;90.74;101408.97;5037410;28;20132;-57
2023/01/10 08:13:06;;;;;;;49.22;14.43;;;;;;;4.58;91.26;101422.88;5033831;28;20495;-57
2023/01/10 08:15:45;;;;;;;27.90;4.07;;;;;;;4.58;91.40;101421.13;5046478;28;20055;-58
2023/01/10 08:18:12;;;;;;;26.15;3.75;;;;;;;4.64;91.37;101419.88;5052476;28;20049;-57
2023/01/10 08:20:39;;;;;;;28.63;4.13;;;;;;;4.64;91.41;101433.03;5050802;28;20044;-57
2023/01/10 08:23:06;;;;;;;27.23;4.38;;;;;;;4.68;92.01;101433.66;5050156;28;20045;-58
2023/01/10 08:25:33;;;;;;;32.70;4.97;;;;;;;4.75;91.35;101430.53;5051213;28;20133;-57
2023/01/10 08:27:59;;;;;;;23.98;4.38;;;;;;;4.70;91.25;101432.63;5032237;28;20045;-57
2023/01/10 08:30:26;;;;;;;29.15;4.15;;;;;;;4.58;91.81;101431.63;5040711;28;20080;-57
2023/01/10 08:32:53;;;;;;;30.50;4.35;;;;;;;4.67;92.39;101426.72;5037542;28;20103;-58
2023/01/10 08:35:19;;;;;;;40.90;4.97;;;;;;;4.73;91.61;101431.56;5037581;28;20107;-57
2023/01/10 08:37:46;;;;;;;39.08;4.88;;;;;;;4.77;91.55;101426.03;5044588;28;20135;-58
2023/01/10 08:40:13;;;;;;;35.95;4.30;;;;;;;4.80;91.54;101435.47;5041701;28;20049;-57
2023/01/10 08:42:39;;;;;;;24.67;3.78;;;;;;;4.85;90.76;101437.81;5030528;28;20454;-57
2023/01/10 08:45:07;;;;;;;31.98;4.75;;;;;;;4.89;91.11;101440.13;5033754;28;20045;-57
2023/01/10 08:47:33;;;;;;;29.98;4.45;;;;;;;4.89;91.53;101445.41;5046335;28;20102;-57
2023/01/10 08:50:01;;;;;;;33.33;4.57;;;;;;;4.95;90.23;101441.56;5037404;28;20098;-57
2023/01/10 08:52:28;;;;;;;28.77;4.85;;;;;;;5.13;89.03;101447.34;5061202;28;20052;-57
2023/01/10 08:54:55;;;;;;;27.83;4.35;;;;;;;4.99;89.83;101446.50;5052123;28;20065;-57
2023/01/10 08:57:21;;;;;;;37.22;4.22;;;;;;;4.95;90.44;101455.53;5035239;28;20045;-58
2023/01/10 08:59:48;;;;;;;40.70;5.13;;;;;;;5.03;90.75;101448.94;5032070;28;20042;-58
2023/01/10 09:02:14;;;;;;;26.83;3.97;;;;;;;4.95;90.18;101455.53;5051808;28;20049;-57
2023/01/10 09:04:41;;;;;;;20.48;4.15;;;;;;;4.98;90.62;101450.09;5036126;28;20046;-57
2023/01/10 09:07:08;;;;;;;26.20;4.13;;;;;;;5.02;89.78;101447.22;5047448;28;20510;-57
2023/01/10 09:09:35;;;;;;;27.52;3.90;;;;;;;5.14;90.37;101449.06;5048540;28;20131;-58
2023/01/10 09:12:53;;;;;;;35.63;4.13;;;;;;;5.26;89.26;101448.25;5040248;28;20045;-57
2023/01/10 09:14:49;;;;;;;57.35;19.00;;;;;;;5.18;89.89;101451.41;5035168;28;20073;-58
2023/01/10 09:17:16;;;;;;;31.08;3.80;;;;;;;5.19;88.87;101452.22;5033740;28;20099;-58
2023/01/10 09:19:42;;;;;;;20.85;3.85;;;;;;;5.35;88.75;101450.25;5040405;28;20487;-58
2023/01/10 09:22:09;;;;;;;32.00;3.85;;;;;;;5.21;88.08;101450.34;5036717;28;20052;-58
2023/01/10 09:24:37;;;;;;;23.98;3.65;;;;;;;5.34;88.29;101451.19;5051248;28;20048;-57
2023/01/10 09:27:04;;;;;;;27.80;4.00;;;;;;;5.41;87.58;101445.53;5048900;28;20045;-57
2023/01/10 09:29:31;;;;;;;30.88;4.05;;;;;;;5.56;88.26;101450.59;5042205;28;20121;-58
2023/01/10 09:31:58;;;;;;;24.88;3.80;;;;;;;5.68;86.96;101448.09;5039517;28;20514;-57
2023/01/10 09:34:24;;;;;;;28.75;3.67;;;;;;;5.73;85.70;101436.28;5043161;28;20057;-58
2023/01/10 09:36:52;;;;;;;29.77;3.97;;;;;;;5.62;86.41;101448.50;5043050;28;20087;-58
2023/01/10 09:39:20;;;;;;;27.13;4.15;;;;;;;5.62;85.69;101452.00;5038525;28;20053;-58
2023/01/10 09:42:27;;;;;;;22.95;3.97;;;;;;;5.66;86.94;101447.34;5032613;28;20041;-57
2023/01/10 09:45:17;;;;;;;29.98;4.05;;;;;;;5.81;86.05;101448.09;5040090;28;20103;-58
2023/01/10 09:47:53;;;;;;;23.40;3.55;;;;;;;5.81;85.51;101446.28;5039825;28;20052;-57
2023/01/10 09:50:45;;;;;;;28.40;3.92;;;;;;;5.91;85.46;101449.97;5059940;28;20048;-57
2023/01/10 09:53:19;;;;;;;26.25;3.95;;;;;;;6.02;84.99;101456.31;5042626;28;20036;-57
2023/01/10 09:55:57;;;;;;;16.40;2.97;;;;;;;5.99;84.92;101465.28;5045156;28;20067;-57
2023/01/10 09:58:26;;;;;;;20.75;3.10;;;;;;;6.06;84.05;101461.28;5040335;28;20076;-57
2023/01/10 10:00:58;;;;;;;30.60;4.20;;;;;;;6.05;84.48;101451.66;5035473;28;20047;-58
2023/01/10 10:03:53;;;;;;;30.13;4.22;;;;;;;6.13;84.10;101456.41;5052988;28;20075;-58
2023/01/10 10:06:22;;;;;;;22.27;4.18;;;;;;;6.40;84.23;101464.13;5033560;28;20610;-58
2023/01/10 10:08:50;;;;;;;32.03;4.22;;;;;;;6.44;84.03;101463.00;5064239;28;20075;-58
2023/01/10 10:14:32;;;;;;;26.05;4.32;;;;;;;6.39;82.50;101469.53;5105867;27;20411;-58
2023/01/10 10:17:31;;;;;;;27.63;3.63;;;;;;;6.39;82.82;101462.47;5069854;28;20688;-58
2023/01/10 10:20:25;;;;;;;35.97;4.22;;;;;;;6.50;83.07;101453.81;5092381;28;20405;-58
2023/01/10 10:23:16;;;;;;;20.65;3.30;;;;;;;6.58;82.84;101448.81;5076089;28;20036;-58
2023/01/10 10:26:11;;;;;;;18.20;2.97;;;;;;;6.62;81.48;101450.28;5085104;28;20048;-57
2023/01/10 10:29:17;;;;;;;31.17;4.43;;;;;;;6.80;81.83;101450.72;5087874;28;20596;-58
2023/01/10 10:32:10;;;;;;;28.45;4.30;;;;;;;6.83;82.50;101453.16;5080540;28;20048;-58
2023/01/10 10:34:46;;;;;;;31.90;4.70;;;;;;;6.84;80.72;101453.97;5089991;28;20052;-58
2023/01/10 10:37:31;;;;;;;24.30;3.95;;;;;;;7.02;80.00;101439.47;5108065;28;20428;-58
2023/01/10 10:40:04;;;;;;;25.83;3.80;;;;;;;7.05;80.12;101441.84;5082143;28;20109;-58
2023/01/10 10:42:36;;;;;;;28.88;3.53;;;;;;;7.21;80.02;101448.63;5103789;28;20072;-58
2023/01/10 10:45:14;;;;;;;33.72;4.32;;;;;;;7.07;79.00;101445.22;5070168;28;20051;-58
2023/01/10 10:47:48;;;;;;;27.83;3.70;;;;;;;7.18;79.12;101439.13;5080608;28;20067;-57
2023/01/10 10:50:33;;;;;;;26.60;3.60;;;;;;;7.30;78.54;101434.75;5080418;28;20044;-58
2023/01/10 10:53:03;;;;;;;29.20;3.80;;;;;;;7.33;78.08;101439.81;5060539;28;20044;-58
2023/01/10 10:55:35;;;;;;;29.88;3.67;;;;;;;7.23;79.46;101421.16;5076298;28;20041;-57
2023/01/10 10:58:04;;;;;;;26.13;3.67;;;;;;;7.32;79.03;101422.28;5086603;28;20047;-58
2023/01/10 11:00:31;;;;;;;27.67;3.50;;;;;;;7.41;77.17;101415.47;5066344;28;20071;-58
2023/01/10 11:03:38;;;;;;;25.17;3.78;;;;;;;7.45;78.11;101412.44;5086397;28;20040;-58
2023/01/10 11:06:06;;;;;;;36.97;4.38;;;;;;;7.68;76.40;101405.41;5081531;28;20044;-58
2023/01/10 11:08:37;;;;;;;22.52;3.10;;;;;;;7.81;75.33;101410.56;5085235;28;20096;-59
2023/01/10 11:11:15;;;;;;;34.40;3.55;;;;;;;8.07;74.36;101403.22;5079442;28;20115;-57
2023/01/10 11:13:47;;;;;;;35.58;4.30;;;;;;;7.81;75.50;101396.53;5098108;28;20052;-58
2023/01/10 11:16:32;;;;;;;26.00;3.90;;;;;;;7.75;74.83;101392.56;5068947;28;20625;-57
2023/01/10 11:19:21;;;;;;;27.42;5.20;;;;;;;7.80;75.35;101390.38;5102704;28;20059;-58
2023/01/10 11:22:05;;;;;;;28.15;4.13;;;;;;;7.76;75.73;101391.59;5083226;28;20036;-58
2023/01/10 11:24:36;;;;;;;30.38;3.58;;;;;;;7.92;76.01;101393.88;5078383;28;20136;-58
2023/01/10 11:27:14;;;;;;;27.80;3.67;;;;;;;8.09;76.41;101381.97;5060660;28;20049;-58
2023/01/10 11:29:46;;;;;;;25.73;3.97;;;;;;;8.38;75.55;101384.91;5082733;28;20302;-56
2023/01/10 11:32:17;;;;;;;22.02;4.30;;;;;;;8.49;74.40;101385.91;5069812;28;20711;-58
2023/01/10 11:34:58;;;;;;;23.95;3.83;;;;;;;8.30;73.83;101381.25;5076467;28;20043;-58
2023/01/10 11:37:31;;;;;;;31.75;5.53;;;;;;;8.33;74.68;101380.97;5075081;28;20032;-58
2023/01/10 11:40:22;;;;;;;23.00;3.72;;;;;;;8.35;73.42;101384.31;5079810;28;20074;-59
2023/01/10 11:42:53;;;;;;;32.85;3.97;;;;;;;8.48;73.80;101386.84;5091342;28;20527;-59
2023/01/10 11:45:27;;;;;;;25.88;4.25;;;;;;;8.50;73.32;101395.53;5063199;28;20391;-59
2023/01/10 11:48:07;;;;;;;22.92;4.05;;;;;;;8.44;73.18;101380.97;5065132;28;20091;-59
2023/01/10 11:50:38;;;;;;;26.20;4.28;;;;;;;8.69;72.82;101390.38;5062056;28;20551;-58
2023/01/10 11:53:06;;;;;;;31.27;3.95;;;;;;;8.64;73.15;101380.19;5061801;28;20051;-58
2023/01/10 11:55:36;;;;;;;28.42;3.80;;;;;;;8.80;73.45;101376.28;5079389;28;20044;-58
2023/01/10 11:58:09;;;;;;;24.98;3.78;;;;;;;8.75;73.22;101368.75;5087382;28;20044;-58
2023/01/10 12:00:42;;;;;;;29.08;4.10;;;;;;;8.77;72.22;101365.97;5054391;28;20049;-59